Charles W. Baker (2M8)
Millington, TN
Field Elevation: 247
Lat: 35°16.74N  Long: 89°55.89W
CTAF/Unicom Freq: 122.8000
   
     For Weather-by-Phone, call 901-873-0903
Weather Advisories
7/24/2014 08:17 Z
Altimeter 30.00" Hg
Wind 010° @ 0 KT
Gusts --
Visibility 3 SM
Ceiling CLR
Temperature 21° C (70° F)
Dewpoint 21° C (70° F)
Relative Humidity 100%
Density Altitude --
Condensation Altitude --
  Wind and Runways
Indicated Runway = 36
History
 
 
More Info
All DigiWx sites map
NOAA Forecast
 
Airport IQ 5010
(M01) General Dewitt Spain Airport
(3M3) Collegedale Muni
 
about DigiWx
 
FAA Disclaimer: The data displayed is for advisory purposes only and is not to be used for flight planning or operations. For official data, please call 901-873-0903 to hear the current automated AWOS voice message.
  METAR 2M8 240817Z AUTO 01000KT 3SM CLR 21/21 A3000